Aeroporto :
LOGIN :

Iscrizione | Disclaimer

   EN    FR    IT 

 










Sommario :    VFR   VFR Marginale   IFR   IFR Intensivo   IFR Molto Intensivo
Visibilità : 
Base nubi : 
>= 8 km
>= 3000ft
5 / 8 km
1000 / 3000 ft
1500m / 5 km
500 / 1000 ft
800 / 1500m
200 / 500 ft
< 800m
< 200 ft
Simboli :   Temporali  Nebbia  Neve Forte  Precipitazioni Forti  Vento > 20 kt
SIGMETs :   Varie  Temporali  Ghiacco  Turbolenza  Onda orograficha  Ceneri Vulcaniche






- Altitudine del aeroporto : 580 ft


LFOA - Avord

ULTIMO METAR :
  • 210030Z AUTO 02008KT CAVOK 01/M00 Q1034

METARs OBSOLETI :
  • 210000Z AUTO 02006KT CAVOK 01/M00 Q1034
  • 202330Z AUTO 02008KT CAVOK 02/M00 Q1034
  • 202300Z AUTO 02009KT CAVOK 02/00 Q1034
  • 202230Z AUTO 03012KT CAVOK 03/00 Q1033 BECMG BKN006
  • 202200Z AUTO 02008KT CAVOK 03/01 Q1033 BECMG BKN006

TAF TAF LFOA
Valido dal 20 a 21 ore il 21 a 21 ore UTC


202000Z 2021/2121 03005KT CAVOK TX06/2115Z TN01/2106Z
BECMG 2023/2101 BKN006
PROB30
TEMPO 2103/2109 2000 BR BKN002
BECMG 2110/2112 BKN015



MetMap, La meteo Aeronautica in un colpo d'occhio ! - Copyright ORBIFLY Dicembre 2007 - Disclaimer

ORBIFLY MET'MAP TEAM :

Programmazione e sviluppo : Alexandra Zaïnal
Concezione : Baudouin d'Aumeries
Aiuto per la programmazione : Marc-Olivier Méhu
Supporto tecnico e logistico : Manuel Goepfert
Aiuto per la traduzione : Arnaldo La Scala

Contatto : metmap@orbifly.com




FONTI E CREDITI :

   NOAA